createdAt,value
2019-06-07T00:00:44.355Z,9.37
2019-06-07T00:03:24.861Z,9.97
2019-06-07T00:05:46.685Z,10.23
2019-06-07T00:08:24.833Z,9.37
2019-06-07T00:10:50.146Z,9.70
2019-06-07T00:13:20.522Z,10.53
2019-06-07T00:15:50.811Z,12.73
2019-06-07T00:18:25.963Z,10.97
2019-06-07T00:20:53.126Z,11.00
2019-06-07T00:23:23.460Z,10.47
2019-06-07T00:25:53.871Z,9.60
2019-06-07T00:28:24.591Z,9.97
2019-06-07T00:30:54.943Z,9.50
2019-06-07T00:33:25.332Z,9.77
2019-06-07T00:35:55.709Z,8.67
2019-06-07T00:38:26.030Z,9.00
2019-06-07T00:40:56.372Z,8.47
2019-06-07T00:43:28.611Z,8.30
2019-06-07T00:45:58.652Z,8.30
2019-06-07T00:48:32.758Z,9.27
2019-06-07T00:51:00.917Z,7.97
2019-06-07T00:53:32.567Z,8.40
2019-06-07T00:56:03.224Z,8.93
2019-06-07T00:58:33.774Z,7.90
2019-06-07T01:01:04.118Z,7.77
2019-06-07T01:03:34.428Z,8.10
2019-06-07T01:06:04.780Z,8.07
2019-06-07T01:08:35.250Z,7.90
2019-06-07T01:11:05.632Z,7.50
2019-06-07T01:13:36.083Z,8.07
2019-06-07T01:16:06.612Z,9.43
2019-06-07T01:18:41.206Z,11.30
2019-06-07T01:21:08.910Z,11.93
2019-06-07T01:24:10.629Z,11.40
2019-06-07T01:26:12.047Z,12.77
2019-06-07T01:28:42.762Z,14.27
2019-06-07T01:31:13.558Z,15.53
2019-06-07T01:33:50.943Z,14.67
2019-06-07T01:36:17.831Z,15.23
2019-06-07T01:38:48.235Z,18.20
2019-06-07T01:41:22.018Z,15.00
2019-06-07T01:43:50.624Z,13.87
2019-06-07T01:46:23.402Z,12.87
2019-06-07T01:48:53.564Z,14.17
2019-06-07T01:51:24.426Z,16.57
2019-06-07T01:54:41.344Z,15.60
2019-06-07T01:56:29.582Z,18.70
2019-06-07T01:58:59.610Z,17.63
2019-06-07T02:01:35.223Z,18.00
2019-06-07T02:04:03.053Z,19.07
2019-06-07T02:06:33.755Z,21.30
2019-06-07T02:09:05.707Z,22.70
2019-06-07T02:11:36.126Z,27.07
2019-06-07T02:14:06.880Z,47.27
2019-06-07T02:16:37.256Z,55.67
2019-06-07T02:19:07.639Z,62.90
2019-06-07T02:21:37.950Z,134.43
2019-06-07T02:24:08.299Z,142.83
2019-06-07T02:26:38.962Z,62.07
2019-06-07T02:29:09.433Z,85.77
2019-06-07T02:31:40.095Z,265.23
2019-06-07T02:34:10.511Z,64.20
2019-06-07T02:36:41.717Z,72.60
2019-06-07T02:39:12.304Z,67.87
2019-06-07T02:41:42.636Z,56.80
2019-06-07T02:44:12.954Z,80.10
2019-06-07T02:46:48.752Z,76.20
2019-06-07T02:49:15.247Z,93.33
2019-06-07T02:51:45.603Z,50.47
2019-06-07T02:54:15.940Z,73.30
2019-06-07T02:56:58.105Z,58.60
2019-06-07T02:59:45.516Z,162.73
2019-06-07T03:01:52.410Z,55.17
2019-06-07T03:04:22.760Z,55.13
2019-06-07T03:06:56.355Z,54.50
2019-06-07T03:09:30.830Z,56.07
2019-06-07T03:12:02.255Z,50.50
2019-06-07T03:14:37.083Z,44.73
2019-06-07T03:17:24.598Z,29.53
2019-06-07T03:19:56.732Z,63.33
2019-06-07T03:22:27.068Z,38.40
2019-06-07T03:25:01.694Z,76.30
2019-06-07T03:27:40.636Z,42.57
2019-06-07T03:30:35.010Z,43.07
2019-06-07T03:32:46.488Z,71.57
2019-06-07T03:35:09.165Z,148.47
2019-06-07T03:37:42.928Z,175.20
2019-06-07T03:40:12.639Z,75.03
2019-06-07T03:42:42.969Z,156.80
2019-06-07T03:45:13.320Z,174.53
2019-06-07T03:47:43.690Z,146.40
2019-06-07T03:50:14.168Z,184.93
2019-06-07T03:52:44.463Z,97.20
2019-06-07T03:55:14.824Z,59.90
2019-06-07T03:58:30.197Z,78.13
2019-06-07T04:00:17.213Z,194.30
2019-06-07T04:02:47.536Z,164.63
2019-06-07T04:05:17.993Z,74.73
2019-06-07T04:07:48.318Z,254.00
2019-06-07T04:10:18.723Z,199.87
2019-06-07T04:12:49.057Z,183.17
2019-06-07T04:15:19.429Z,185.40
2019-06-07T04:18:01.426Z,153.33
2019-06-07T04:20:21.815Z,146.73
2019-06-07T04:22:52.138Z,101.50
2019-06-07T04:25:22.519Z,110.17
2019-06-07T04:27:52.800Z,82.93
2019-06-07T04:30:41.517Z,40.63
2019-06-07T04:33:12.406Z,126.27
2019-06-07T04:35:45.294Z,37.60
2019-06-07T04:38:16.214Z,68.63
2019-06-07T04:40:47.438Z,44.53
2019-06-07T04:43:17.763Z,31.70
2019-06-07T04:45:51.318Z,30.37
2019-06-07T04:48:22.309Z,55.83
2019-06-07T04:50:55.030Z,201.23
2019-06-07T04:53:25.403Z,62.93
2019-06-07T04:55:56.100Z,216.13
2019-06-07T04:58:26.388Z,82.23
2019-06-07T05:01:03.112Z,29.07
2019-06-07T05:03:31.384Z,73.47
2019-06-07T05:06:00.679Z,40.23
2019-06-07T05:08:33.185Z,27.97
2019-06-07T05:11:02.942Z,24.37
2019-06-07T05:13:37.860Z,41.63
2019-06-07T05:16:05.347Z,30.20
2019-06-07T05:18:39.602Z,53.30
2019-06-07T05:21:07.668Z,72.53
2019-06-07T05:26:09.989Z,113.40
2019-06-07T05:28:42.828Z,40.20
2019-06-07T05:31:12.478Z,78.20
2019-06-07T05:33:43.574Z,33.37
2019-06-07T05:36:14.144Z,22.07
2019-06-07T05:38:45.062Z,72.70
2019-06-07T05:41:15.597Z,13.33
2019-06-07T05:44:00.638Z,16.47
2019-06-07T05:46:17.908Z,11.30
2019-06-07T05:48:48.509Z,12.17
2019-06-07T05:51:18.907Z,16.60
2019-06-07T05:53:49.255Z,13.03
2019-06-07T05:56:19.633Z,22.03
2019-06-07T05:58:49.958Z,14.93
2019-06-07T06:01:42.996Z,11.30
2019-06-07T06:03:52.297Z,11.37
2019-06-07T06:06:22.654Z,11.27
2019-06-07T06:09:11.599Z,12.20
2019-06-07T06:11:43.080Z,15.00
2019-06-07T06:14:07.395Z,14.17
2019-06-07T06:16:45.356Z,12.67
2019-06-07T06:19:13.154Z,11.17
2019-06-07T06:21:46.310Z,10.93
2019-06-07T06:24:15.408Z,11.53
2019-06-07T06:26:51.195Z,11.50
2019-06-07T06:29:17.719Z,11.80
2019-06-07T06:32:35.867Z,11.77
2019-06-07T06:34:20.066Z,12.73
2019-06-07T06:36:50.590Z,12.60
2019-06-07T06:39:20.965Z,14.67
2019-06-07T06:42:01.234Z,15.80
2019-06-07T06:44:23.252Z,11.90
2019-06-07T06:46:58.270Z,12.17
2019-06-07T06:49:25.537Z,11.47
2019-06-07T06:51:55.917Z,11.20
2019-06-07T06:54:40.317Z,11.93
2019-06-07T06:57:18.079Z,10.83
2019-06-07T06:59:39.572Z,10.37
2019-06-07T07:02:03.184Z,11.57
2019-06-07T07:04:34.160Z,13.83
2019-06-07T07:07:04.518Z,12.80
2019-06-07T07:09:36.158Z,11.93
2019-06-07T07:12:12.201Z,11.20
2019-06-07T07:14:38.502Z,11.27
2019-06-07T07:17:08.826Z,9.70
2019-06-07T07:19:39.124Z,11.33
2019-06-07T07:22:09.557Z,12.57
2019-06-07T07:24:39.916Z,12.70
2019-06-07T07:27:10.227Z,12.20
2019-06-07T07:29:40.710Z,12.53
2019-06-07T07:32:11.056Z,11.57
2019-06-07T07:34:45.513Z,12.17
2019-06-07T07:37:13.428Z,9.97
2019-06-07T07:39:45.318Z,11.97
2019-06-07T07:42:21.209Z,12.27
2019-06-07T07:44:49.902Z,12.47
2019-06-07T07:47:19.820Z,11.80
2019-06-07T07:49:53.028Z,10.63
2019-06-07T07:52:22.077Z,12.03
2019-06-07T07:54:56.275Z,10.03
2019-06-07T07:57:24.775Z,10.10
2019-06-07T08:00:13.240Z,9.10
2019-06-07T08:02:27.116Z,9.27
2019-06-07T08:05:22.642Z,7.53
2019-06-07T08:07:30.444Z,7.57
2019-06-07T08:10:03.909Z,8.57
2019-06-07T08:12:55.798Z,6.57
2019-06-07T08:15:05.140Z,6.30
2019-06-07T08:17:35.716Z,5.90
2019-06-07T08:20:06.147Z,7.33
2019-06-07T08:22:36.459Z,7.70
2019-06-07T08:25:06.917Z,7.57
2019-06-07T08:27:37.224Z,7.00
2019-06-07T08:30:46.411Z,7.00
2019-06-07T08:32:41.100Z,7.53
2019-06-07T08:35:11.436Z,8.27
2019-06-07T08:38:15.056Z,7.60
2019-06-07T08:40:15.561Z,8.60
2019-06-07T08:43:03.127Z,8.87
2019-06-07T08:45:19.608Z,8.43
2019-06-07T08:47:53.569Z,8.47
2019-06-07T08:50:22.202Z,9.80
2019-06-07T08:52:56.062Z,9.07
2019-06-07T08:55:24.627Z,9.97
2019-06-07T08:58:02.220Z,9.97
2019-06-07T09:00:45.207Z,10.30
2019-06-07T09:03:06.484Z,10.40
2019-06-07T09:05:31.618Z,7.77
2019-06-07T09:08:23.604Z,9.47
2019-06-07T09:10:34.954Z,9.30
2019-06-07T09:13:11.353Z,8.33
2019-06-07T09:15:37.460Z,9.13
2019-06-07T09:18:40.029Z,9.67
2019-06-07T09:20:45.222Z,11.33
2019-06-07T09:23:17.000Z,10.87
2019-06-07T09:25:57.525Z,10.83
2019-06-07T09:28:20.833Z,10.17
2019-06-07T09:30:51.822Z,8.43
2019-06-07T09:33:22.155Z,8.40
2019-06-07T09:35:52.697Z,9.80
2019-06-07T09:38:26.260Z,8.30
2019-06-07T09:40:57.386Z,9.17
2019-06-07T09:46:01.159Z,9.90
2019-06-07T09:51:09.757Z,10.77
2019-06-07T09:53:34.983Z,10.93
2019-06-07T09:56:08.676Z,9.80
2019-06-07T09:58:54.219Z,10.03
2019-06-07T10:01:13.322Z,10.13
2019-06-07T10:03:41.256Z,10.93
2019-06-07T10:06:13.570Z,10.37
2019-06-07T10:11:17.430Z,10.33
2019-06-07T10:13:48.811Z,9.73
2019-06-07T10:16:19.195Z,11.50
2019-06-07T10:18:49.548Z,10.90
2019-06-07T10:21:19.880Z,9.87
2019-06-07T10:23:50.239Z,11.53
2019-06-07T10:26:20.584Z,9.83
2019-06-07T10:28:53.443Z,10.30
2019-06-07T10:31:22.888Z,10.77
2019-06-07T10:33:53.291Z,13.17
2019-06-07T10:36:23.640Z,12.67
2019-06-07T10:38:53.982Z,12.93
2019-06-07T10:41:25.291Z,10.93
2019-06-07T10:43:55.603Z,9.67
2019-06-07T10:46:25.987Z,9.57
2019-06-07T10:48:56.588Z,7.60
2019-06-07T10:51:27.061Z,10.43
2019-06-07T10:53:57.462Z,8.83
2019-06-07T10:56:27.844Z,9.73
2019-06-07T10:58:58.217Z,7.97
2019-06-07T11:01:28.557Z,10.37
2019-06-07T11:03:58.906Z,10.10
2019-06-07T11:06:29.334Z,8.93
2019-06-07T11:08:59.661Z,9.37
2019-06-07T11:11:30.017Z,11.67
2019-06-07T11:14:00.366Z,9.27
2019-06-07T11:16:30.724Z,9.07
2019-06-07T11:19:01.055Z,9.73
2019-06-07T11:21:31.427Z,7.07
2019-06-07T11:24:01.749Z,8.20
2019-06-07T11:26:32.145Z,6.17
2019-06-07T11:29:02.459Z,5.62
2019-06-07T11:31:32.819Z,6.47
2019-06-07T11:34:03.152Z,7.70
2019-06-07T11:36:33.502Z,5.95
2019-06-07T11:39:06.724Z,5.20
2019-06-07T11:41:37.256Z,5.60
2019-06-07T11:44:08.775Z,6.85
2019-06-07T11:46:39.330Z,6.97
2019-06-07T11:49:10.869Z,6.58
2019-06-07T11:51:42.810Z,14.18
2019-06-07T11:54:13.980Z,8.08
2019-06-07T11:56:44.591Z,11.10
2019-06-07T11:59:15.327Z,6.10
2019-06-07T12:01:45.689Z,5.70
2019-06-07T12:04:33.850Z,6.33
2019-06-07T12:06:48.000Z,6.75
2019-06-07T12:09:18.761Z,5.40
2019-06-07T12:11:49.263Z,6.83
2019-06-07T12:14:19.611Z,7.00
2019-06-07T12:16:50.200Z,6.75
2019-06-07T12:19:21.539Z,6.90
2019-06-07T12:21:51.895Z,6.58
2019-06-07T12:24:23.302Z,6.22
2019-06-07T12:26:54.789Z,5.60
2019-06-07T12:29:25.100Z,6.97
2019-06-07T12:31:55.501Z,5.28
2019-06-07T12:34:25.829Z,5.35
2019-06-07T12:36:56.272Z,4.93
2019-06-07T12:39:26.695Z,7.55
2019-06-07T12:41:57.048Z,6.60
2019-06-07T12:44:27.401Z,5.67
2019-06-07T12:46:57.755Z,5.45
2019-06-07T12:49:28.082Z,5.42
2019-06-07T12:51:58.431Z,5.55
2019-06-07T12:54:28.736Z,4.33
2019-06-07T12:56:59.174Z,4.92
2019-06-07T12:59:30.357Z,6.30
2019-06-07T13:02:02.477Z,6.42
2019-06-07T13:04:32.716Z,6.00
2019-06-07T13:07:03.062Z,6.47
2019-06-07T13:09:35.982Z,7.22
2019-06-07T13:12:05.456Z,11.22
2019-06-07T13:14:35.785Z,11.30
2019-06-07T13:17:06.157Z,12.10
2019-06-07T13:19:36.455Z,10.30
2019-06-07T13:22:06.812Z,10.47
2019-06-07T13:24:37.309Z,11.05
2019-06-07T13:27:07.794Z,8.85
2019-06-07T13:29:38.115Z,6.47
2019-06-07T13:32:08.482Z,7.53
2019-06-07T13:34:38.799Z,7.70
2019-06-07T13:37:10.141Z,7.62
2019-06-07T13:39:40.470Z,7.50
2019-06-07T13:42:11.782Z,6.42
2019-06-07T13:44:42.175Z,5.15
2019-06-07T13:47:13.842Z,6.15
2019-06-07T13:49:44.164Z,5.85
2019-06-07T13:52:15.776Z,4.83
2019-06-07T13:54:46.113Z,5.08
2019-06-07T13:57:17.924Z,6.10
2019-06-07T13:59:48.397Z,6.53
2019-06-07T14:02:18.749Z,5.85
2019-06-07T14:04:49.058Z,5.72
2019-06-07T14:07:21.114Z,6.40
2019-06-07T14:09:51.535Z,6.40
2019-06-07T14:12:22.196Z,5.72
2019-06-07T14:14:53.238Z,6.03
2019-06-07T14:17:23.645Z,5.37
2019-06-07T14:19:53.984Z,4.97
2019-06-07T14:22:24.771Z,7.58
2019-06-07T14:24:55.155Z,7.97
2019-06-07T14:27:25.557Z,8.93
2019-06-07T14:29:55.884Z,10.15
2019-06-07T14:32:26.620Z,8.40
2019-06-07T14:34:57.074Z,8.80
2019-06-07T14:37:28.920Z,9.88
2019-06-07T14:39:59.447Z,11.43
2019-06-07T14:42:29.885Z,8.80
2019-06-07T14:45:05.580Z,11.12
2019-06-07T14:47:32.263Z,10.50
2019-06-07T14:50:02.839Z,10.55
2019-06-07T14:52:34.672Z,8.40
2019-06-07T14:55:05.585Z,5.87
2019-06-07T14:57:36.043Z,10.00
2019-06-07T15:00:11.246Z,7.33
2019-06-07T15:02:40.080Z,5.47
2019-06-07T15:05:10.917Z,6.77
2019-06-07T15:07:41.245Z,5.78
2019-06-07T15:10:11.749Z,4.90
2019-06-07T15:12:42.061Z,8.70
2019-06-07T15:15:12.410Z,5.13
2019-06-07T15:17:43.033Z,5.37
2019-06-07T15:20:13.668Z,6.07
2019-06-07T15:22:43.987Z,5.00
2019-06-07T15:25:14.566Z,4.47
2019-06-07T15:27:44.935Z,6.97
2019-06-07T15:30:16.988Z,6.03
2019-06-07T15:32:47.468Z,4.20
2019-06-07T15:35:18.951Z,4.20
2019-06-07T15:37:49.304Z,4.10
2019-06-07T15:40:19.974Z,5.37
2019-06-07T15:42:53.220Z,5.43
2019-06-07T15:45:22.381Z,7.10
2019-06-07T15:47:52.691Z,3.73
2019-06-07T15:50:23.242Z,69.33
2019-06-07T15:52:53.551Z,10.90
2019-06-07T15:55:24.022Z,14.93
2019-06-07T15:57:54.348Z,11.57
2019-06-07T16:00:24.734Z,7.03
2019-06-07T16:02:55.103Z,14.00
2019-06-07T16:05:25.419Z,10.43
2019-06-07T16:07:55.746Z,5.80
2019-06-07T16:10:26.076Z,5.20
2019-06-07T16:13:00.531Z,6.07
2019-06-07T16:15:28.362Z,4.67
2019-06-07T16:17:58.720Z,6.27
2019-06-07T16:20:29.045Z,7.30
2019-06-07T16:22:59.479Z,8.10
2019-06-07T16:25:29.175Z,3.80
2019-06-07T16:27:59.463Z,10.73
2019-06-07T16:30:29.937Z,5.70
2019-06-07T16:33:00.273Z,3.23
2019-06-07T16:35:30.575Z,3.73
2019-06-07T16:38:01.039Z,7.10
2019-06-07T16:40:31.386Z,3.60
2019-06-07T16:43:16.241Z,4.93
2019-06-07T16:45:33.655Z,4.10
2019-06-07T16:48:04.109Z,4.17
2019-06-07T16:50:34.432Z,5.80
2019-06-07T16:53:04.784Z,3.10
2019-06-07T16:55:36.750Z,3.43
2019-06-07T16:58:07.169Z,3.23
2019-06-07T17:00:38.678Z,4.43
2019-06-07T17:03:09.492Z,3.53
2019-06-07T17:05:43.371Z,4.50
2019-06-07T17:08:11.770Z,2.97
2019-06-07T17:10:42.574Z,3.00
2019-06-07T17:13:13.069Z,1.63
2019-06-07T17:15:44.803Z,2.37
2019-06-07T17:18:15.638Z,2.00
2019-06-07T17:20:47.276Z,3.47
2019-06-07T17:23:17.710Z,7.97
2019-06-07T17:25:48.018Z,4.60
2019-06-07T17:28:18.388Z,2.30
2019-06-07T17:30:50.166Z,2.67
2019-06-07T17:33:20.734Z,2.80
2019-06-07T17:35:51.167Z,2.13
2019-06-07T17:38:21.634Z,2.40
2019-06-07T17:40:51.943Z,4.67
2019-06-07T17:43:22.297Z,2.73
2019-06-07T17:45:52.600Z,2.63
2019-06-07T17:48:24.050Z,5.87
2019-06-07T17:50:54.480Z,3.30
2019-06-07T17:53:24.889Z,1.60
2019-06-07T17:55:55.215Z,1.63
2019-06-07T17:58:25.591Z,1.00
2019-06-07T18:00:55.895Z,1.20
2019-06-07T18:03:26.232Z,2.30
2019-06-07T18:05:56.527Z,2.67
2019-06-07T18:08:27.482Z,1.37
2019-06-07T18:10:57.807Z,3.83
2019-06-07T18:13:28.137Z,1.30
2019-06-07T18:15:59.855Z,1.17
2019-06-07T18:18:30.417Z,1.20
2019-06-07T18:21:00.723Z,3.27
2019-06-07T18:23:32.631Z,1.80
2019-06-07T18:26:02.966Z,1.37
2019-06-07T18:28:34.702Z,1.30
2019-06-07T18:31:05.060Z,1.20
2019-06-07T18:33:35.472Z,1.27
2019-06-07T18:36:05.981Z,1.67
2019-06-07T18:38:36.363Z,2.37
2019-06-07T18:41:06.711Z,1.53
2019-06-07T18:43:37.074Z,2.87
2019-06-07T18:46:08.352Z,2.43
2019-06-07T18:48:39.194Z,2.87
2019-06-07T18:51:09.492Z,1.57
2019-06-07T18:53:39.843Z,2.17
2019-06-07T18:56:10.228Z,2.00
2019-06-07T18:58:40.592Z,4.13
2019-06-07T19:01:10.959Z,1.73
2019-06-07T19:03:41.919Z,3.40
2019-06-07T19:06:12.237Z,1.43
2019-06-07T19:08:42.583Z,2.63
2019-06-07T19:11:12.912Z,1.83
2019-06-07T19:13:43.352Z,1.53
2019-06-07T19:16:14.713Z,1.00
2019-06-07T19:18:45.091Z,1.10
2019-06-07T19:21:18.509Z,1.00
2019-06-07T19:23:50.026Z,1.57
2019-06-07T19:26:20.406Z,2.07
2019-06-07T19:28:50.808Z,2.53
2019-06-07T19:31:21.238Z,1.23
2019-06-07T19:33:53.028Z,1.27
2019-06-07T19:36:23.630Z,1.10
2019-06-07T19:38:54.140Z,1.10
2019-06-07T19:41:24.459Z,1.50
2019-06-07T19:43:56.119Z,1.87
2019-06-07T19:46:26.531Z,1.70
2019-06-07T19:48:56.986Z,1.80
2019-06-07T19:51:27.423Z,2.73
2019-06-07T19:53:58.908Z,1.40
2019-06-07T19:56:29.565Z,1.10
2019-06-07T19:59:00.019Z,2.30
2019-06-07T20:01:30.371Z,2.20
2019-06-07T20:04:02.477Z,3.37
2019-06-07T20:06:34.508Z,2.87
2019-06-07T20:09:06.291Z,3.57
2019-06-07T20:11:36.924Z,3.20
2019-06-07T20:14:07.360Z,2.17
2019-06-07T20:16:37.707Z,2.13
2019-06-07T20:19:08.958Z,2.50
2019-06-07T20:21:40.491Z,1.40
2019-06-07T20:24:24.855Z,3.90
2019-06-07T20:26:43.444Z,1.77
2019-06-07T20:29:25.306Z,2.07
2019-06-07T20:31:46.886Z,1.73
2019-06-07T20:34:17.540Z,2.47
2019-06-07T20:36:48.041Z,3.57
2019-06-07T20:39:18.485Z,2.10
2019-06-07T20:41:49.076Z,2.00
2019-06-07T20:44:19.459Z,2.50
2019-06-07T20:46:50.171Z,2.43
2019-06-07T20:49:20.669Z,2.63
2019-06-07T20:51:51.193Z,1.60
2019-06-07T20:54:21.559Z,3.63
2019-06-07T20:56:51.964Z,2.10
2019-06-07T20:59:25.442Z,2.97
2019-06-07T21:01:57.154Z,1.63
2019-06-07T21:04:27.515Z,2.07
2019-06-07T21:06:59.120Z,3.30
2019-06-07T21:09:29.592Z,2.90
2019-06-07T21:11:59.908Z,2.00
2019-06-07T21:14:30.251Z,1.63
2019-06-07T21:17:00.603Z,2.87
2019-06-07T21:19:31.054Z,2.97
2019-06-07T21:22:02.386Z,2.43
2019-06-07T21:24:32.804Z,3.33
2019-06-07T21:27:03.524Z,1.60
2019-06-07T21:29:33.961Z,4.97
2019-06-07T21:32:05.433Z,3.20
2019-06-07T21:34:35.941Z,2.53
2019-06-07T21:37:06.279Z,2.90
2019-06-07T21:39:36.659Z,3.80
2019-06-07T21:42:08.073Z,2.13
2019-06-07T21:44:38.529Z,1.93
2019-06-07T21:47:08.894Z,2.07
2019-06-07T21:49:39.230Z,2.70
2019-06-07T21:52:10.721Z,2.00
2019-06-07T21:54:52.984Z,3.37
2019-06-07T21:57:23.352Z,3.23
2019-06-07T21:59:53.691Z,2.77
2019-06-07T22:02:24.031Z,2.03
2019-06-07T22:04:54.342Z,1.80
2019-06-07T22:07:24.694Z,1.97
2019-06-07T22:09:55.015Z,2.90
2019-06-07T22:12:25.389Z,3.33
2019-06-07T22:14:55.695Z,1.43
2019-06-07T22:17:26.047Z,1.53
2019-06-07T22:19:56.358Z,1.67
2019-06-07T22:22:26.950Z,1.37
2019-06-07T22:24:57.271Z,1.27
2019-06-07T22:27:27.615Z,4.20
2019-06-07T22:29:57.918Z,1.60
2019-06-07T22:32:28.319Z,2.17
2019-06-07T22:34:58.628Z,1.20
2019-06-07T22:37:28.983Z,2.13
2019-06-07T22:39:59.296Z,1.60
2019-06-07T22:42:31.862Z,2.00
2019-06-07T22:45:04.419Z,3.00
2019-06-07T22:47:36.997Z,2.40
2019-06-07T22:50:08.582Z,1.47
2019-06-07T22:52:41.335Z,1.50
2019-06-07T22:55:13.950Z,1.20
2019-06-07T22:58:03.996Z,1.67
2019-06-07T23:00:37.704Z,1.57
2019-06-07T23:03:08.561Z,2.30
2019-06-07T23:05:38.989Z,1.73
2019-06-07T23:08:09.343Z,2.00
2019-06-07T23:10:39.680Z,1.33
2019-06-07T23:13:11.589Z,1.20
2019-06-07T23:15:42.294Z,1.47
2019-06-07T23:18:13.454Z,1.53
2019-06-07T23:20:43.757Z,2.63
2019-06-07T23:23:14.926Z,1.30
2019-06-07T23:25:45.303Z,1.90
2019-06-07T23:28:16.584Z,1.83
2019-06-07T23:30:46.938Z,1.80
2019-06-07T23:33:17.287Z,2.10
2019-06-07T23:35:47.607Z,2.50
2019-06-07T23:38:19.122Z,1.20
2019-06-07T23:40:50.791Z,1.50
2019-06-07T23:43:21.594Z,1.97
2019-06-07T23:45:51.998Z,2.63
2019-06-07T23:48:22.323Z,1.67
2019-06-07T23:50:52.737Z,1.70
2019-06-07T23:53:23.079Z,1.30
2019-06-07T23:55:53.389Z,1.37
2019-06-07T23:58:23.762Z,1.73
